createdAt,value
2019-06-01T00:01:51.664Z,19.47
2019-06-01T00:04:22.996Z,19.42
2019-06-01T00:06:54.149Z,19.39
2019-06-01T00:09:25.340Z,19.35
2019-06-01T00:11:56.541Z,19.31
2019-06-01T00:14:27.745Z,19.29
2019-06-01T00:16:59.001Z,19.25
2019-06-01T00:19:30.188Z,19.24
2019-06-01T00:22:01.413Z,19.26
2019-06-01T00:24:32.633Z,19.66
2019-06-01T00:27:03.881Z,19.43
2019-06-01T00:29:35.072Z,19.39
2019-06-01T00:32:06.334Z,19.39
2019-06-01T00:34:37.530Z,19.38
2019-06-01T00:37:08.681Z,19.35
2019-06-01T00:39:39.908Z,19.31
2019-06-01T00:42:11.097Z,19.25
2019-06-01T00:44:42.370Z,19.23
2019-06-01T00:47:13.635Z,19.23
2019-06-01T00:49:44.834Z,19.19
2019-06-01T00:52:16.038Z,19.16
2019-06-01T00:54:47.392Z,19.13
2019-06-01T00:57:22.130Z,19.09
2019-06-01T00:59:54.629Z,19.05
2019-06-01T01:02:25.436Z,19.03
2019-06-01T01:05:06.302Z,18.99
2019-06-01T01:07:38.306Z,18.97
2019-06-01T01:10:09.597Z,18.95
2019-06-01T01:12:58.775Z,18.94
2019-06-01T01:15:29.983Z,18.92
2019-06-01T01:18:01.278Z,18.88
2019-06-01T01:20:32.557Z,18.86
2019-06-01T01:23:03.801Z,18.85
2019-06-01T01:25:35.121Z,18.84
2019-06-01T01:28:06.399Z,18.85
2019-06-01T01:30:37.559Z,18.83
2019-06-01T01:33:08.759Z,18.82
2019-06-01T01:35:39.972Z,18.81
2019-06-01T01:38:13.245Z,18.80
2019-06-01T01:40:44.427Z,18.77
2019-06-01T01:43:15.651Z,18.76
2019-06-01T01:45:46.837Z,18.74
2019-06-01T01:48:18.041Z,18.71
2019-06-01T01:50:50.235Z,18.72
2019-06-01T01:53:21.600Z,18.71
2019-06-01T01:55:52.976Z,18.69
2019-06-01T01:58:24.368Z,18.67
2019-06-01T02:00:56.815Z,18.64
2019-06-01T02:03:28.512Z,18.61
2019-06-01T02:05:59.760Z,18.61
2019-06-01T02:08:38.611Z,18.59
2019-06-01T02:11:10.022Z,18.60
2019-06-01T02:13:41.367Z,18.62
2019-06-01T02:16:13.201Z,18.63
2019-06-01T02:18:44.591Z,18.61
2019-06-01T02:21:15.944Z,18.62
2019-06-01T02:23:47.244Z,18.64
2019-06-01T02:26:18.627Z,18.66
2019-06-01T02:28:50.031Z,18.65
2019-06-01T02:31:37.474Z,18.67
2019-06-01T02:33:56.125Z,18.66
2019-06-01T02:36:58.383Z,18.66
2019-06-01T02:43:01.508Z,18.63
2019-06-01T02:45:33.239Z,18.59
2019-06-01T02:48:07.022Z,18.59
2019-06-01T02:50:38.361Z,18.58
2019-06-01T02:53:09.809Z,18.55
2019-06-01T02:55:41.177Z,18.55
2019-06-01T02:58:12.572Z,18.52
2019-06-01T03:01:29.318Z,18.51
2019-06-01T03:04:01.357Z,18.51
2019-06-01T03:06:33.321Z,18.47
2019-06-01T03:09:08.861Z,18.47
2019-06-01T03:11:41.211Z,18.45
2019-06-01T03:14:13.279Z,18.45
2019-06-01T03:16:44.655Z,18.45
2019-06-01T03:19:17.700Z,18.44
2019-06-01T03:21:50.843Z,18.43
2019-06-01T03:24:26.131Z,18.43
2019-06-01T03:26:57.522Z,18.42
2019-06-01T03:29:31.430Z,18.40
2019-06-01T03:32:24.089Z,18.39
2019-06-01T03:34:35.709Z,18.37
2019-06-01T03:37:07.149Z,18.37
2019-06-01T03:39:38.684Z,18.34
2019-06-01T03:42:11.610Z,18.32
2019-06-01T03:44:42.921Z,18.31
2019-06-01T03:47:14.252Z,18.27
2019-06-01T03:49:45.522Z,18.28
2019-06-01T03:52:16.958Z,18.24
2019-06-01T03:54:48.750Z,18.20
2019-06-01T03:57:20.132Z,18.17
2019-06-01T03:59:51.514Z,18.14
2019-06-01T04:02:32.826Z,18.12
2019-06-01T04:04:56.978Z,18.11
2019-06-01T04:07:28.300Z,18.12
2019-06-01T04:09:59.624Z,18.12
2019-06-01T04:12:31.046Z,18.11
2019-06-01T04:15:08.419Z,18.13
2019-06-01T04:17:35.593Z,18.13
2019-06-01T04:20:08.193Z,18.15
2019-06-01T04:22:39.627Z,18.18
2019-06-01T04:25:12.224Z,18.19
2019-06-01T04:27:44.605Z,18.18
2019-06-01T04:30:15.986Z,18.17
2019-06-01T04:32:50.355Z,18.18
2019-06-01T04:35:20.382Z,18.18
2019-06-01T04:37:51.858Z,18.17
2019-06-01T04:40:23.207Z,18.18
2019-06-01T04:42:54.494Z,18.21
2019-06-01T04:45:25.814Z,18.26
2019-06-01T04:47:57.150Z,18.30
2019-06-01T04:50:28.458Z,18.35
2019-06-01T04:52:59.999Z,18.40
2019-06-01T04:55:31.349Z,18.45
2019-06-01T04:58:02.684Z,18.49
2019-06-01T05:00:34.135Z,18.52
2019-06-01T05:03:08.729Z,18.55
2019-06-01T05:05:39.560Z,18.57
2019-06-01T05:08:12.562Z,18.57
2019-06-01T05:10:43.939Z,18.58
2019-06-01T05:13:15.709Z,18.60
2019-06-01T05:15:47.401Z,18.61
2019-06-01T05:18:19.720Z,18.64
2019-06-01T05:20:51.247Z,18.65
2019-06-01T05:23:22.759Z,18.70
2019-06-01T05:25:54.107Z,18.73
2019-06-01T05:28:25.535Z,18.77
2019-06-01T05:30:56.833Z,18.78
2019-06-01T05:33:36.839Z,18.80
2019-06-01T05:36:01.239Z,18.84
2019-06-01T05:38:32.742Z,18.87
2019-06-01T05:41:04.104Z,18.90
2019-06-01T05:43:35.497Z,18.93
2019-06-01T05:46:06.824Z,18.96
2019-06-01T05:48:38.098Z,19.00
2019-06-01T05:51:12.522Z,19.03
2019-06-01T05:53:42.454Z,19.09
2019-06-01T05:56:14.748Z,19.15
2019-06-01T05:58:46.387Z,19.19
2019-06-01T06:01:19.657Z,19.23
2019-06-01T06:03:50.720Z,19.28
2019-06-01T06:06:22.177Z,19.29
2019-06-01T06:08:53.525Z,19.32
2019-06-01T06:11:24.804Z,19.35
2019-06-01T06:13:57.987Z,19.39
2019-06-01T06:16:29.394Z,19.43
2019-06-01T06:19:00.717Z,19.48
2019-06-01T06:21:32.019Z,19.52
2019-06-01T06:24:03.315Z,19.55
2019-06-01T06:26:34.641Z,19.57
2019-06-01T06:29:06.067Z,19.60
2019-06-01T06:31:37.474Z,19.65
2019-06-01T06:34:08.886Z,19.71
2019-06-01T06:36:40.227Z,19.78
2019-06-01T06:39:11.640Z,19.87
2019-06-01T06:41:43.097Z,19.96
2019-06-01T06:44:14.672Z,20.05
2019-06-01T06:46:47.815Z,20.13
2019-06-01T06:49:19.261Z,20.23
2019-06-01T06:51:50.657Z,20.33
2019-06-01T06:54:22.022Z,20.43
2019-06-01T06:56:53.393Z,20.54
2019-06-01T06:59:24.692Z,20.65
2019-06-01T07:01:56.179Z,20.73
2019-06-01T07:04:27.601Z,20.82
2019-06-01T07:06:58.986Z,20.92
2019-06-01T07:09:30.324Z,21.03
2019-06-01T07:12:02.521Z,21.12
2019-06-01T07:14:34.910Z,21.21
2019-06-01T07:17:06.370Z,21.33
2019-06-01T07:19:37.720Z,21.41
2019-06-01T07:22:09.179Z,21.47
2019-06-01T07:24:40.512Z,21.49
2019-06-01T07:27:11.828Z,21.53
2019-06-01T07:29:43.203Z,21.82
2019-06-01T07:32:14.538Z,21.75
2019-06-01T07:34:46.504Z,21.79
2019-06-01T07:37:17.886Z,21.84
2019-06-01T07:39:49.244Z,21.87
2019-06-01T07:42:24.498Z,21.92
2019-06-01T07:44:53.600Z,21.97
2019-06-01T07:47:25.064Z,22.27
2019-06-01T07:49:56.451Z,22.17
2019-06-01T07:52:28.282Z,22.15
2019-06-01T07:54:59.740Z,22.18
2019-06-01T07:57:31.775Z,22.22
2019-06-01T08:00:03.207Z,22.27
2019-06-01T08:02:34.830Z,22.29
2019-06-01T08:05:06.639Z,22.30
2019-06-01T08:07:38.143Z,22.32
2019-06-01T08:10:09.625Z,22.32
2019-06-01T08:12:40.790Z,22.38
2019-06-01T08:15:12.173Z,22.41
2019-06-01T08:17:43.575Z,22.43
2019-06-01T08:20:14.843Z,22.44
2019-06-01T08:22:46.087Z,22.46
2019-06-01T08:25:17.400Z,22.46
2019-06-01T08:27:48.700Z,22.49
2019-06-01T08:30:19.909Z,22.54
2019-06-01T08:32:51.214Z,22.56
2019-06-01T08:35:22.903Z,22.59
2019-06-01T08:37:54.232Z,22.60
2019-06-01T08:40:25.498Z,22.64
2019-06-01T08:42:57.794Z,22.68
2019-06-01T08:45:29.673Z,22.68
2019-06-01T08:48:01.092Z,22.69
2019-06-01T08:50:32.343Z,22.97
2019-06-01T08:53:03.666Z,22.84
2019-06-01T08:55:35.013Z,22.84
2019-06-01T08:58:06.636Z,22.81
2019-06-01T09:00:37.866Z,22.82
2019-06-01T09:03:09.107Z,22.84
2019-06-01T09:05:40.475Z,22.89
2019-06-01T09:08:11.800Z,22.95
2019-06-01T09:10:42.983Z,22.99
2019-06-01T09:13:14.197Z,22.99
2019-06-01T09:15:45.424Z,23.03
2019-06-01T09:18:16.678Z,23.08
2019-06-01T09:20:48.064Z,23.12
2019-06-01T09:23:19.411Z,23.19
2019-06-01T09:25:50.765Z,23.25
2019-06-01T09:28:22.030Z,23.31
2019-06-01T09:30:53.254Z,23.36
2019-06-01T09:33:24.492Z,23.41
2019-06-01T09:35:56.551Z,23.46
2019-06-01T09:38:28.031Z,23.46
2019-06-01T09:41:00.458Z,23.48
2019-06-01T09:43:32.803Z,23.52
2019-06-01T09:46:04.036Z,23.56
2019-06-01T09:48:35.703Z,23.53
2019-06-01T09:51:07.106Z,23.55
2019-06-01T09:53:38.334Z,23.62
2019-06-01T09:56:09.530Z,23.69
2019-06-01T09:58:40.984Z,23.74
2019-06-01T10:01:12.338Z,23.82
2019-06-01T10:03:43.767Z,23.90
2019-06-01T10:06:15.051Z,24.22
2019-06-01T10:08:46.349Z,24.41
2019-06-01T10:11:17.668Z,24.58
2019-06-01T10:13:48.934Z,24.40
2019-06-01T10:16:21.226Z,24.61
2019-06-01T10:18:52.412Z,24.47
2019-06-01T10:21:23.671Z,24.45
2019-06-01T10:23:54.995Z,24.48
2019-06-01T10:26:26.209Z,24.76
2019-06-01T10:28:57.386Z,24.93
2019-06-01T10:31:28.618Z,24.77
2019-06-01T10:33:59.882Z,24.74
2019-06-01T10:36:31.921Z,24.75
2019-06-01T10:39:03.738Z,24.69
2019-06-01T10:41:35.322Z,24.68
2019-06-01T10:44:07.043Z,24.72
2019-06-01T10:46:38.212Z,24.75
2019-06-01T10:49:09.444Z,24.77
2019-06-01T10:51:40.627Z,24.81
2019-06-01T10:54:12.002Z,24.81
2019-06-01T10:56:43.233Z,24.79
2019-06-01T10:59:14.739Z,24.78
2019-06-01T11:01:45.960Z,24.81
2019-06-01T11:04:17.771Z,24.84
2019-06-01T11:06:49.439Z,24.83
2019-06-01T11:09:20.842Z,24.86
2019-06-01T11:11:52.021Z,24.89
2019-06-01T11:14:23.252Z,24.92
2019-06-01T11:16:56.452Z,24.95
2019-06-01T11:19:27.568Z,25.00
2019-06-01T11:21:58.718Z,25.09
2019-06-01T11:24:29.905Z,25.20
2019-06-01T11:27:01.070Z,25.27
2019-06-01T11:29:34.550Z,25.33
2019-06-01T11:32:05.119Z,25.40
2019-06-01T11:34:36.612Z,25.46
2019-06-01T11:37:08.443Z,25.48
2019-06-01T11:39:40.579Z,25.53
2019-06-01T11:42:12.893Z,25.56
2019-06-01T11:44:44.919Z,25.58
2019-06-01T11:47:16.301Z,25.62
2019-06-01T11:49:47.568Z,25.66
2019-06-01T11:52:18.758Z,25.66
2019-06-01T11:54:49.970Z,25.67
2019-06-01T11:57:21.142Z,25.65
2019-06-01T11:59:52.370Z,25.65
2019-06-01T12:02:23.664Z,25.69
2019-06-01T12:04:55.805Z,25.75
2019-06-01T12:07:27.053Z,25.81
2019-06-01T12:09:58.286Z,25.86
2019-06-01T12:12:29.513Z,25.92
2019-06-01T12:15:00.680Z,25.98
2019-06-01T12:17:31.850Z,26.02
2019-06-01T12:20:03.073Z,26.09
2019-06-01T12:22:34.232Z,26.11
2019-06-01T12:25:05.794Z,26.15
2019-06-01T12:27:39.408Z,26.22
2019-06-01T12:30:11.328Z,26.37
2019-06-01T12:32:42.809Z,26.50
2019-06-01T12:35:15.870Z,26.57
2019-06-01T12:38:02.771Z,26.63
2019-06-01T12:40:20.246Z,26.65
2019-06-01T12:42:52.009Z,26.66
2019-06-01T12:45:23.567Z,26.70
2019-06-01T12:47:58.363Z,26.75
2019-06-01T12:50:27.731Z,26.82
2019-06-01T12:52:58.915Z,26.91
2019-06-01T12:55:30.139Z,27.01
2019-06-01T12:58:01.383Z,27.11
2019-06-01T13:00:32.582Z,27.17
2019-06-01T13:03:07.663Z,27.25
2019-06-01T13:05:36.970Z,27.22
2019-06-01T13:08:08.165Z,27.24
2019-06-01T13:10:39.528Z,27.28
2019-06-01T13:13:10.762Z,27.26
2019-06-01T13:15:43.229Z,27.29
2019-06-01T13:18:14.540Z,27.29
2019-06-01T13:20:45.805Z,27.35
2019-06-01T13:23:16.984Z,27.41
2019-06-01T13:25:48.169Z,27.49
2019-06-01T13:28:19.464Z,27.62
2019-06-01T13:30:51.133Z,27.75
2019-06-01T13:33:22.821Z,27.82
2019-06-01T13:35:53.984Z,27.83
2019-06-01T13:38:25.248Z,27.81
2019-06-01T13:40:56.455Z,27.82
2019-06-01T13:43:27.639Z,27.88
2019-06-01T13:45:58.878Z,27.95
2019-06-01T13:48:30.067Z,28.02
2019-06-01T13:51:01.227Z,28.03
2019-06-01T13:53:32.457Z,28.09
2019-06-01T13:56:03.615Z,28.17
2019-06-01T13:58:35.884Z,28.25
2019-06-01T14:01:07.070Z,28.32
2019-06-01T14:03:40.166Z,28.35
2019-06-01T14:06:11.377Z,28.34
2019-06-01T14:08:42.680Z,28.36
2019-06-01T14:11:13.866Z,28.39
2019-06-01T14:13:45.366Z,28.38
2019-06-01T14:16:16.578Z,28.38
2019-06-01T14:18:47.899Z,28.36
2019-06-01T14:21:19.089Z,28.32
2019-06-01T14:23:51.878Z,28.27
2019-06-01T14:26:23.192Z,28.24
2019-06-01T14:28:54.461Z,28.27
2019-06-01T14:31:25.740Z,28.27
2019-06-01T14:33:57.148Z,28.29
2019-06-01T14:36:28.619Z,28.29
2019-06-01T14:39:00.314Z,28.25
2019-06-01T14:41:32.031Z,28.22
2019-06-01T14:44:03.271Z,28.25
2019-06-01T14:46:52.470Z,28.29
2019-06-01T14:49:08.774Z,28.23
2019-06-01T14:51:40.118Z,28.22
2019-06-01T14:54:11.364Z,28.24
2019-06-01T14:56:42.787Z,28.23
2019-06-01T14:59:14.065Z,28.28
2019-06-01T15:01:45.494Z,28.35
2019-06-01T15:04:17.912Z,28.44
2019-06-01T15:06:50.222Z,28.51
2019-06-01T15:09:21.599Z,28.53
2019-06-01T15:11:52.802Z,28.55
2019-06-01T15:14:24.069Z,28.59
2019-06-01T15:16:57.922Z,28.62
2019-06-01T15:19:29.715Z,28.64
2019-06-01T15:22:01.035Z,28.71
2019-06-01T15:24:32.361Z,28.79
2019-06-01T15:27:03.604Z,28.82
2019-06-01T15:29:35.058Z,28.86
2019-06-01T15:32:06.246Z,28.93
2019-06-01T15:34:37.650Z,28.96
2019-06-01T15:37:09.608Z,28.98
2019-06-01T15:39:41.084Z,28.93
2019-06-01T15:42:12.305Z,28.90
2019-06-01T15:44:43.594Z,28.87
2019-06-01T15:47:14.727Z,28.85
2019-06-01T15:49:48.166Z,28.81
2019-06-01T15:52:19.749Z,28.80
2019-06-01T15:54:52.116Z,28.70
2019-06-01T15:57:25.410Z,28.65
2019-06-01T15:59:57.020Z,28.63
2019-06-01T16:02:28.391Z,28.58
2019-06-01T16:05:01.237Z,28.51
2019-06-01T16:07:32.665Z,28.43
2019-06-01T16:10:07.601Z,28.38
2019-06-01T16:12:38.490Z,28.35
2019-06-01T16:15:11.044Z,28.34
2019-06-01T16:17:42.375Z,28.29
2019-06-01T16:20:13.952Z,28.21
2019-06-01T16:22:45.227Z,28.17
2019-06-01T16:25:19.176Z,28.15
2019-06-01T16:27:50.616Z,28.10
2019-06-01T16:30:22.069Z,28.01
2019-06-01T16:32:54.676Z,27.95
2019-06-01T16:35:26.118Z,27.90
2019-06-01T16:37:58.917Z,27.86
2019-06-01T16:40:30.724Z,27.83
2019-06-01T16:43:01.961Z,27.78
2019-06-01T16:45:33.363Z,27.76
2019-06-01T16:48:06.404Z,27.67
2019-06-01T16:50:39.240Z,27.63
2019-06-01T16:53:10.716Z,27.60
2019-06-01T16:55:42.008Z,27.57
2019-06-01T16:58:13.353Z,27.54
2019-06-01T17:00:44.725Z,27.52
2019-06-01T17:03:16.525Z,27.51
2019-06-01T17:05:48.385Z,27.49
2019-06-01T17:08:20.465Z,27.46
2019-06-01T17:10:52.373Z,27.46
2019-06-01T17:13:26.920Z,27.47
2019-06-01T17:15:58.926Z,27.49
2019-06-01T17:18:31.407Z,27.52
2019-06-01T17:21:03.530Z,27.55
2019-06-01T17:23:34.853Z,27.59
2019-06-01T17:26:06.991Z,27.64
2019-06-01T17:28:38.937Z,27.65
2019-06-01T17:31:10.297Z,27.71
2019-06-01T17:33:41.590Z,27.76
2019-06-01T17:36:12.843Z,27.85
2019-06-01T17:38:44.082Z,27.95
2019-06-01T17:41:15.350Z,28.04
2019-06-01T17:43:46.827Z,28.12
2019-06-01T17:46:18.070Z,28.24
2019-06-01T17:48:49.334Z,28.37
2019-06-01T17:51:22.971Z,28.47
2019-06-01T17:53:54.832Z,28.52
2019-06-01T17:56:26.656Z,28.52
2019-06-01T17:58:58.244Z,28.49
2019-06-01T18:01:30.703Z,28.46
2019-06-01T18:04:02.019Z,28.42
2019-06-01T18:06:33.586Z,28.35
2019-06-01T18:09:06.085Z,28.26
2019-06-01T18:11:38.934Z,28.13
2019-06-01T18:14:10.813Z,27.96
2019-06-01T18:16:42.169Z,27.82
2019-06-01T18:19:13.577Z,27.72
2019-06-01T18:21:45.295Z,27.61
2019-06-01T18:24:17.592Z,27.54
2019-06-01T18:26:49.769Z,27.48
2019-06-01T18:29:22.194Z,27.39
2019-06-01T18:31:54.415Z,27.29
2019-06-01T18:34:25.707Z,27.19
2019-06-01T18:36:57.236Z,27.08
2019-06-01T18:39:28.452Z,27.33
2019-06-01T18:41:59.793Z,27.09
2019-06-01T18:44:31.117Z,26.97
2019-06-01T18:47:03.598Z,26.90
2019-06-01T18:49:34.961Z,26.80
2019-06-01T18:52:06.481Z,26.74
2019-06-01T18:54:37.990Z,26.70
2019-06-01T18:57:16.747Z,26.68
2019-06-01T18:59:42.154Z,26.66
2019-06-01T19:02:14.551Z,26.61
2019-06-01T19:04:45.776Z,26.54
2019-06-01T19:07:17.070Z,26.45
2019-06-01T19:09:48.276Z,26.34
2019-06-01T19:12:19.558Z,26.24
2019-06-01T19:14:50.817Z,26.16
2019-06-01T19:17:22.089Z,26.10
2019-06-01T19:19:53.424Z,26.00
2019-06-01T19:22:24.722Z,26.30
2019-06-01T19:24:55.966Z,26.02
2019-06-01T19:27:27.186Z,25.90
2019-06-01T19:29:59.571Z,25.81
2019-06-01T19:32:31.169Z,25.72
2019-06-01T19:35:02.550Z,25.65
2019-06-01T19:37:38.653Z,25.60
2019-06-01T19:40:09.417Z,25.57
2019-06-01T19:42:40.734Z,25.53
2019-06-01T19:45:22.589Z,25.48
2019-06-01T19:47:45.213Z,25.45
2019-06-01T19:50:18.397Z,25.41
2019-06-01T19:52:49.975Z,25.36
2019-06-01T19:55:21.219Z,25.33
2019-06-01T19:57:53.178Z,25.30
2019-06-01T20:00:24.523Z,25.62
2019-06-01T20:02:55.882Z,25.37
2019-06-01T20:05:27.179Z,25.27
2019-06-01T20:07:58.645Z,25.18
2019-06-01T20:10:29.918Z,25.08
2019-06-01T20:13:01.522Z,25.03
2019-06-01T20:15:32.852Z,24.97
2019-06-01T20:18:04.475Z,24.91
2019-06-01T20:20:35.822Z,24.86
2019-06-01T20:23:06.998Z,24.80
2019-06-01T20:25:38.140Z,24.75
2019-06-01T20:28:09.684Z,24.69
2019-06-01T20:30:40.953Z,24.62
2019-06-01T20:33:12.261Z,24.55
2019-06-01T20:35:43.618Z,24.49
2019-06-01T20:38:16.390Z,24.40
2019-06-01T20:40:47.993Z,24.35
2019-06-01T20:43:20.690Z,24.27
2019-06-01T20:45:56.675Z,24.21
2019-06-01T20:48:26.479Z,24.13
2019-06-01T20:50:58.839Z,24.05
2019-06-01T20:53:30.144Z,24.00
2019-06-01T20:56:01.360Z,23.93
2019-06-01T20:58:32.657Z,23.85
2019-06-01T21:01:03.940Z,23.79
2019-06-01T21:03:35.740Z,23.74
2019-06-01T21:06:07.109Z,23.68
2019-06-01T21:08:38.502Z,23.62
2019-06-01T21:11:10.199Z,23.58
2019-06-01T21:13:41.411Z,23.53
2019-06-01T21:16:12.620Z,23.47
2019-06-01T21:18:44.023Z,23.42
2019-06-01T21:21:16.326Z,23.37
2019-06-01T21:23:47.960Z,23.32
2019-06-01T21:26:19.223Z,23.30
2019-06-01T21:28:51.635Z,23.26
2019-06-01T21:31:23.254Z,23.20
2019-06-01T21:33:54.473Z,23.16
2019-06-01T21:36:25.881Z,23.12
2019-06-01T21:38:57.160Z,23.09
2019-06-01T21:41:28.360Z,23.06
2019-06-01T21:43:59.625Z,23.02
2019-06-01T21:46:30.900Z,22.96
2019-06-01T21:49:02.229Z,22.92
2019-06-01T21:51:33.495Z,22.86
2019-06-01T21:54:04.689Z,22.82
2019-06-01T21:56:35.860Z,22.77
2019-06-01T21:59:07.041Z,23.11
2019-06-01T22:01:38.476Z,22.82
2019-06-01T22:04:09.707Z,22.72
2019-06-01T22:06:41.021Z,22.66
2019-06-01T22:09:12.205Z,22.59
2019-06-01T22:11:43.453Z,22.53
2019-06-01T22:14:14.740Z,22.49
2019-06-01T22:16:45.970Z,22.46
2019-06-01T22:19:17.531Z,22.43
2019-06-01T22:21:49.002Z,22.39
2019-06-01T22:24:20.284Z,22.36
2019-06-01T22:26:51.593Z,22.35
2019-06-01T22:29:22.824Z,22.32
2019-06-01T22:31:53.979Z,22.69
2019-06-01T22:34:25.210Z,22.44
2019-06-01T22:36:56.429Z,22.36
2019-06-01T22:39:28.914Z,22.30
2019-06-01T22:42:00.260Z,22.27
2019-06-01T22:44:32.425Z,22.24
2019-06-01T22:47:03.706Z,22.19
2019-06-01T22:49:34.885Z,22.17
2019-06-01T22:52:06.092Z,22.15
2019-06-01T22:54:37.398Z,22.15
2019-06-01T22:57:08.620Z,22.12
2019-06-01T22:59:39.737Z,22.10
2019-06-01T23:02:12.207Z,22.08
2019-06-01T23:04:43.384Z,22.04
2019-06-01T23:07:14.648Z,22.01
2019-06-01T23:09:45.848Z,21.99
2019-06-01T23:12:17.033Z,21.96
2019-06-01T23:14:48.332Z,21.95
2019-06-01T23:17:19.604Z,21.94
2019-06-01T23:19:50.794Z,21.93
2019-06-01T23:22:21.973Z,21.88
2019-06-01T23:24:53.786Z,21.84
2019-06-01T23:27:25.852Z,22.21
2019-06-01T23:29:58.402Z,21.95
2019-06-01T23:32:30.685Z,21.88
2019-06-01T23:35:01.970Z,22.23
2019-06-01T23:37:33.283Z,22.33
2019-06-01T23:40:04.682Z,22.39
2019-06-01T23:42:35.931Z,22.46
2019-06-01T23:45:07.258Z,22.50
2019-06-01T23:47:38.486Z,22.53
2019-06-01T23:50:09.723Z,22.19
2019-06-01T23:52:40.882Z,22.06
2019-06-01T23:55:12.068Z,21.97
2019-06-01T23:57:43.212Z,21.88
